sensor_id;sensor_type;location;lat;lon;timestamp;pressure;altitude;pressure_sealevel;temperature;humidity
37486;BME280;23341;50.296;18.960;2022-12-19T00:03:24;113062.75;;;-144.43;100.00
37486;BME280;23341;50.296;18.960;2022-12-19T00:08:27;113062.75;;;-144.43;100.00
37486;BME280;23341;50.296;18.960;2022-12-19T00:13:31;113062.75;;;-144.43;100.00
37486;BME280;23341;50.296;18.960;2022-12-19T00:18:44;113062.75;;;-144.43;100.00
37486;BME280;23341;50.296;18.960;2022-12-19T00:23:49;113062.75;;;-144.43;100.00
37486;BME280;23341;50.296;18.960;2022-12-19T00:28:54;113062.75;;;-144.43;100.00
37486;BME280;23341;50.296;18.960;2022-12-19T00:34:00;113062.75;;;-144.43;100.00
37486;BME280;23341;50.296;18.960;2022-12-19T00:39:05;113062.75;;;-144.43;100.00
37486;BME280;23341;50.296;18.960;2022-12-19T00:44:15;113062.75;;;-144.43;100.00
37486;BME280;23341;50.296;18.960;2022-12-19T00:49:20;113062.75;;;-144.43;100.00
37486;BME280;23341;50.296;18.960;2022-12-19T00:54:24;113062.75;;;-144.43;100.00
37486;BME280;23341;50.296;18.960;2022-12-19T00:59:28;113062.75;;;-144.43;100.00
37486;BME280;23341;50.296;18.960;2022-12-19T01:04:33;113062.75;;;-144.43;100.00
37486;BME280;23341;50.296;18.960;2022-12-19T01:09:46;113062.75;;;-144.43;100.00
37486;BME280;23341;50.296;18.960;2022-12-19T01:14:52;113062.75;;;-144.43;100.00
37486;BME280;23341;50.296;18.960;2022-12-19T01:20:08;113062.75;;;-144.43;100.00
37486;BME280;23341;50.296;18.960;2022-12-19T01:25:12;113062.75;;;-144.43;100.00
37486;BME280;23341;50.296;18.960;2022-12-19T01:30:16;113062.75;;;-144.43;100.00
37486;BME280;23341;50.296;18.960;2022-12-19T01:35:22;113062.75;;;-144.43;100.00
37486;BME280;23341;50.296;18.960;2022-12-19T01:40:26;113062.75;;;-144.43;100.00
37486;BME280;23341;50.296;18.960;2022-12-19T01:45:30;113062.75;;;-144.43;100.00
37486;BME280;23341;50.296;18.960;2022-12-19T01:50:49;113062.75;;;-144.43;100.00
37486;BME280;23341;50.296;18.960;2022-12-19T01:56:05;113062.75;;;-144.43;100.00
37486;BME280;23341;50.296;18.960;2022-12-19T02:01:12;113062.75;;;-144.43;100.00
37486;BME280;23341;50.296;18.960;2022-12-19T02:06:17;113062.75;;;-144.43;100.00
37486;BME280;23341;50.296;18.960;2022-12-19T02:11:21;113062.75;;;-144.43;100.00
37486;BME280;23341;50.296;18.960;2022-12-19T02:16:31;113062.75;;;-144.43;100.00
37486;BME280;23341;50.296;18.960;2022-12-19T02:21:48;113062.75;;;-144.43;100.00
37486;BME280;23341;50.296;18.960;2022-12-19T02:27:00;113062.75;;;-144.43;100.00
37486;BME280;23341;50.296;18.960;2022-12-19T02:32:13;113062.75;;;-144.43;100.00
37486;BME280;23341;50.296;18.960;2022-12-19T02:37:25;113062.75;;;-144.43;100.00
37486;BME280;23341;50.296;18.960;2022-12-19T02:42:38;113062.75;;;-144.43;100.00
37486;BME280;23341;50.296;18.960;2022-12-19T02:47:43;113062.75;;;-144.43;100.00
37486;BME280;23341;50.296;18.960;2022-12-19T02:52:48;113062.75;;;-144.43;100.00
37486;BME280;23341;50.296;18.960;2022-12-19T02:58:03;113062.75;;;-144.43;100.00
37486;BME280;23341;50.296;18.960;2022-12-19T03:03:17;113062.75;;;-144.43;100.00
37486;BME280;23341;50.296;18.960;2022-12-19T03:08:27;113062.75;;;-144.43;100.00
37486;BME280;23341;50.296;18.960;2022-12-19T03:13:34;113062.75;;;-144.43;100.00
37486;BME280;23341;50.296;18.960;2022-12-19T03:18:42;113062.75;;;-144.43;100.00
37486;BME280;23341;50.296;18.960;2022-12-19T03:23:47;113062.75;;;-144.43;100.00
37486;BME280;23341;50.296;18.960;2022-12-19T03:28:52;113062.75;;;-144.43;100.00
37486;BME280;23341;50.296;18.960;2022-12-19T03:34:01;113062.75;;;-144.43;100.00
37486;BME280;23341;50.296;18.960;2022-12-19T03:39:07;113062.75;;;-144.43;100.00
37486;BME280;23341;50.296;18.960;2022-12-19T03:44:14;113062.75;;;-144.43;100.00
37486;BME280;23341;50.296;18.960;2022-12-19T03:49:20;113062.75;;;-144.43;100.00
37486;BME280;23341;50.296;18.960;2022-12-19T03:54:25;113062.75;;;-144.43;100.00
37486;BME280;23341;50.296;18.960;2022-12-19T03:59:33;113062.75;;;-144.43;100.00
37486;BME280;23341;50.296;18.960;2022-12-19T04:04:41;113062.75;;;-144.43;100.00
37486;BME280;23341;50.296;18.960;2022-12-19T04:09:46;113062.75;;;-144.43;100.00
37486;BME280;23341;50.296;18.960;2022-12-19T04:14:53;113062.75;;;-144.43;100.00
37486;BME280;23341;50.296;18.960;2022-12-19T04:20:01;113062.75;;;-144.43;100.00
37486;BME280;23341;50.296;18.960;2022-12-19T04:25:08;113062.75;;;-144.43;100.00
37486;BME280;23341;50.296;18.960;2022-12-19T04:30:14;113062.75;;;-144.43;100.00
37486;BME280;23341;50.296;18.960;2022-12-19T04:35:19;113062.75;;;-144.43;100.00
37486;BME280;23341;50.296;18.960;2022-12-19T04:40:23;113062.75;;;-144.43;100.00
37486;BME280;23341;50.296;18.960;2022-12-19T04:45:26;113062.75;;;-144.43;100.00
37486;BME280;23341;50.296;18.960;2022-12-19T04:50:32;113062.75;;;-144.43;100.00
37486;BME280;23341;50.296;18.960;2022-12-19T04:55:37;113062.75;;;-144.43;100.00
37486;BME280;23341;50.296;18.960;2022-12-19T05:00:41;113062.75;;;-144.43;100.00
37486;BME280;23341;50.296;18.960;2022-12-19T05:05:46;113062.75;;;-144.43;100.00
37486;BME280;23341;50.296;18.960;2022-12-19T05:10:49;113062.75;;;-144.43;100.00
37486;BME280;23341;50.296;18.960;2022-12-19T05:15:56;113062.75;;;-144.43;100.00
37486;BME280;23341;50.296;18.960;2022-12-19T05:21:01;113062.75;;;-144.43;100.00
37486;BME280;23341;50.296;18.960;2022-12-19T05:26:05;113062.75;;;-144.43;100.00
37486;BME280;23341;50.296;18.960;2022-12-19T05:31:11;113062.75;;;-144.43;100.00
37486;BME280;23341;50.296;18.960;2022-12-19T05:36:17;113062.75;;;-144.43;100.00
37486;BME280;23341;50.296;18.960;2022-12-19T05:41:21;113062.75;;;-144.43;100.00
37486;BME280;23341;50.296;18.960;2022-12-19T05:46:25;113062.75;;;-144.43;100.00
37486;BME280;23341;50.296;18.960;2022-12-19T05:51:30;113062.75;;;-144.43;100.00
37486;BME280;23341;50.296;18.960;2022-12-19T05:56:34;113062.75;;;-144.43;100.00
37486;BME280;23341;50.296;18.960;2022-12-19T06:01:37;113062.75;;;-144.43;100.00
37486;BME280;23341;50.296;18.960;2022-12-19T06:06:43;113062.75;;;-144.43;100.00
37486;BME280;23341;50.296;18.960;2022-12-19T06:11:46;113062.75;;;-144.43;100.00
37486;BME280;23341;50.296;18.960;2022-12-19T06:16:50;113062.75;;;-144.43;100.00
37486;BME280;23341;50.296;18.960;2022-12-19T06:21:55;113062.75;;;-144.43;100.00
37486;BME280;23341;50.296;18.960;2022-12-19T06:26:58;113062.75;;;-144.43;100.00
37486;BME280;23341;50.296;18.960;2022-12-19T06:32:02;113062.75;;;-144.43;99.91
37486;BME280;23341;50.296;18.960;2022-12-19T06:37:07;113062.75;;;-144.43;100.00
37486;BME280;23341;50.296;18.960;2022-12-19T06:42:10;113062.75;;;-144.43;99.71
37486;BME280;23341;50.296;18.960;2022-12-19T06:47:25;113062.75;;;-144.43;99.64
37486;BME280;23341;50.296;18.960;2022-12-19T06:52:30;113062.75;;;-144.43;99.37
37486;BME280;23341;50.296;18.960;2022-12-19T06:57:34;113062.75;;;-144.43;98.72
37486;BME280;23341;50.296;18.960;2022-12-19T07:02:38;113062.75;;;-144.43;98.82
37486;BME280;23341;50.296;18.960;2022-12-19T07:07:46;113062.75;;;-144.43;99.12
37486;BME280;23341;50.296;18.960;2022-12-19T07:12:49;113062.75;;;-144.43;98.60
37486;BME280;23341;50.296;18.960;2022-12-19T07:17:53;113062.75;;;-144.43;98.74
37486;BME280;23341;50.296;18.960;2022-12-19T07:22:58;113062.75;;;-144.43;99.73
37486;BME280;23341;50.296;18.960;2022-12-19T07:28:01;113062.75;;;-144.43;98.84
37486;BME280;23341;50.296;18.960;2022-12-19T07:33:05;113062.75;;;-144.43;98.32
37486;BME280;23341;50.296;18.960;2022-12-19T07:38:14;113062.75;;;-144.43;97.74
37486;BME280;23341;50.296;18.960;2022-12-19T07:43:17;113062.75;;;-144.43;96.40
37486;BME280;23341;50.296;18.960;2022-12-19T07:48:21;113062.75;;;-144.43;95.79
37486;BME280;23341;50.296;18.960;2022-12-19T07:53:26;113062.75;;;-144.43;95.04
37486;BME280;23341;50.296;18.960;2022-12-19T07:58:30;113062.75;;;-144.43;92.45
37486;BME280;23341;50.296;18.960;2022-12-19T08:03:33;113062.75;;;-144.43;88.01
37486;BME280;23341;50.296;18.960;2022-12-19T08:08:38;113062.75;;;-144.43;83.00
37486;BME280;23341;50.296;18.960;2022-12-19T08:13:42;113062.75;;;-144.43;76.86
37486;BME280;23341;50.296;18.960;2022-12-19T08:18:48;113062.75;;;-144.43;72.40
37486;BME280;23341;50.296;18.960;2022-12-19T08:23:53;113062.75;;;-144.43;68.23
37486;BME280;23341;50.296;18.960;2022-12-19T08:28:57;113062.75;;;-144.43;67.19
37486;BME280;23341;50.296;18.960;2022-12-19T08:34:01;113062.75;;;-144.43;63.50
37486;BME280;23341;50.296;18.960;2022-12-19T08:39:06;113062.75;;;-144.43;61.74
37486;BME280;23341;50.296;18.960;2022-12-19T08:44:10;113062.75;;;-144.43;60.92
37486;BME280;23341;50.296;18.960;2022-12-19T08:49:14;113062.75;;;-144.43;58.65
37486;BME280;23341;50.296;18.960;2022-12-19T08:54:19;113062.75;;;-144.43;59.12
37486;BME280;23341;50.296;18.960;2022-12-19T08:59:22;113062.75;;;-144.43;57.85
37486;BME280;23341;50.296;18.960;2022-12-19T09:04:33;113062.75;;;-144.43;57.37
37486;BME280;23341;50.296;18.960;2022-12-19T09:09:57;113062.75;;;-144.43;56.27
37486;BME280;23341;50.296;18.960;2022-12-19T09:15:01;113062.75;;;-144.43;57.39
37486;BME280;23341;50.296;18.960;2022-12-19T09:20:05;113062.75;;;-144.43;56.13
37486;BME280;23341;50.296;18.960;2022-12-19T09:25:11;113062.75;;;-144.43;54.95
37486;BME280;23341;50.296;18.960;2022-12-19T09:30:15;113062.75;;;-144.43;54.25
37486;BME280;23341;50.296;18.960;2022-12-19T09:42:40;113062.75;;;-144.43;56.77
37486;BME280;23341;50.296;18.960;2022-12-19T09:47:48;113062.75;;;-144.43;56.56
37486;BME280;23341;50.296;18.960;2022-12-19T09:52:57;113062.75;;;-144.43;55.47
37486;BME280;23341;50.296;18.960;2022-12-19T09:58:06;113062.75;;;-144.43;57.95
37486;BME280;23341;50.296;18.960;2022-12-19T10:03:19;113062.75;;;-144.43;59.71
37486;BME280;23341;50.296;18.960;2022-12-19T10:08:27;113062.75;;;-144.43;58.51
37486;BME280;23341;50.296;18.960;2022-12-19T10:13:53;113062.75;;;-144.43;56.29
37486;BME280;23341;50.296;18.960;2022-12-19T10:19:01;113062.75;;;-144.43;58.17
37486;BME280;23341;50.296;18.960;2022-12-19T10:24:22;113062.75;;;-144.43;59.62
37486;BME280;23341;50.296;18.960;2022-12-19T10:29:58;113062.75;;;-144.43;58.66
37486;BME280;23341;50.296;18.960;2022-12-19T10:35:11;113062.75;;;-144.43;57.54
37486;BME280;23341;50.296;18.960;2022-12-19T10:40:21;113062.75;;;-144.43;58.37
37486;BME280;23341;50.296;18.960;2022-12-19T10:45:35;113062.75;;;-144.43;59.00
37486;BME280;23341;50.296;18.960;2022-12-19T10:50:40;113062.75;;;-144.43;58.63
37486;BME280;23341;50.296;18.960;2022-12-19T10:55:45;113062.75;;;-144.43;57.73
37486;BME280;23341;50.296;18.960;2022-12-19T11:01:01;113062.75;;;-144.43;55.88
37486;BME280;23341;50.296;18.960;2022-12-19T11:06:38;113062.75;;;-144.43;56.70
37486;BME280;23341;50.296;18.960;2022-12-19T11:11:42;113062.75;;;-144.43;58.24
37486;BME280;23341;50.296;18.960;2022-12-19T11:17:22;113062.75;;;-144.43;57.73
37486;BME280;23341;50.296;18.960;2022-12-19T11:22:51;113062.75;;;-144.43;56.05
37486;BME280;23341;50.296;18.960;2022-12-19T11:28:16;113062.75;;;-144.43;55.77
37486;BME280;23341;50.296;18.960;2022-12-19T11:33:45;113062.75;;;-144.43;55.49
37486;BME280;23341;50.296;18.960;2022-12-19T11:38:56;113062.75;;;-144.43;57.29
37486;BME280;23341;50.296;18.960;2022-12-19T11:44:03;113062.75;;;-144.43;58.05
37486;BME280;23341;50.296;18.960;2022-12-19T11:49:19;113062.75;;;-144.43;59.98
37486;BME280;23341;50.296;18.960;2022-12-19T11:54:30;113062.75;;;-144.43;61.92
37486;BME280;23341;50.296;18.960;2022-12-19T11:59:37;113062.75;;;-144.43;61.67
37486;BME280;23341;50.296;18.960;2022-12-19T12:10:26;113062.75;;;-144.43;61.82
37486;BME280;23341;50.296;18.960;2022-12-19T12:15:58;113062.75;;;-144.43;63.25
37486;BME280;23341;50.296;18.960;2022-12-19T12:21:28;113062.75;;;-144.43;64.07
37486;BME280;23341;50.296;18.960;2022-12-19T12:27:02;113062.75;;;-144.43;65.43
37486;BME280;23341;50.296;18.960;2022-12-19T12:32:43;113062.75;;;-144.43;65.71
37486;BME280;23341;50.296;18.960;2022-12-19T12:38:23;113062.75;;;-144.43;67.19
37486;BME280;23341;50.296;18.960;2022-12-19T12:44:00;113062.75;;;-144.43;68.87
37486;BME280;23341;50.296;18.960;2022-12-19T12:49:23;113062.75;;;-144.43;71.55
37486;BME280;23341;50.296;18.960;2022-12-19T12:54:33;113062.75;;;-144.43;73.63
37486;BME280;23341;50.296;18.960;2022-12-19T12:59:43;113062.75;;;-144.43;73.24
37486;BME280;23341;50.296;18.960;2022-12-19T13:04:55;113062.75;;;-144.43;72.43
37486;BME280;23341;50.296;18.960;2022-12-19T13:10:17;113062.75;;;-144.43;75.26
37486;BME280;23341;50.296;18.960;2022-12-19T13:15:40;113062.75;;;-144.43;76.72
37486;BME280;23341;50.296;18.960;2022-12-19T13:20:46;113062.75;;;-144.43;78.43
37486;BME280;23341;50.296;18.960;2022-12-19T13:25:53;113062.75;;;-144.43;80.42
37486;BME280;23341;50.296;18.960;2022-12-19T13:31:14;113062.75;;;-144.43;79.93
37486;BME280;23341;50.296;18.960;2022-12-19T13:36:45;113062.75;;;-144.43;80.12
37486;BME280;23341;50.296;18.960;2022-12-19T13:42:16;113062.75;;;-144.43;80.89
37486;BME280;23341;50.296;18.960;2022-12-19T13:47:40;113062.75;;;-144.43;81.83
37486;BME280;23341;50.296;18.960;2022-12-19T13:52:47;113062.75;;;-144.43;81.64
37486;BME280;23341;50.296;18.960;2022-12-19T13:57:53;113062.75;;;-144.43;81.96
37486;BME280;23341;50.296;18.960;2022-12-19T14:02:58;113062.75;;;-144.43;83.76
37486;BME280;23341;50.296;18.960;2022-12-19T14:13:22;113062.75;;;-144.43;86.62
37486;BME280;23341;50.296;18.960;2022-12-19T14:24:35;113062.75;;;-144.43;88.65
37486;BME280;23341;50.296;18.960;2022-12-19T14:29:43;113062.75;;;-144.43;88.01
37486;BME280;23341;50.296;18.960;2022-12-19T14:35:07;113062.75;;;-144.43;89.42
37486;BME280;23341;50.296;18.960;2022-12-19T14:41:18;113062.75;;;-144.43;91.27
37486;BME280;23341;50.296;18.960;2022-12-19T14:47:10;113062.75;;;-144.43;92.53
37486;BME280;23341;50.296;18.960;2022-12-19T14:52:39;113062.75;;;-144.43;92.86
37486;BME280;23341;50.296;18.960;2022-12-19T14:58:06;113062.75;;;-144.43;95.51
37486;BME280;23341;50.296;18.960;2022-12-19T15:03:53;113062.75;;;-144.43;96.08
37486;BME280;23341;50.296;18.960;2022-12-19T15:09:18;113062.75;;;-144.43;97.55
37486;BME280;23341;50.296;18.960;2022-12-19T15:14:48;113062.75;;;-144.43;98.42
37486;BME280;23341;50.296;18.960;2022-12-19T15:20:02;113062.75;;;-144.43;98.97
37486;BME280;23341;50.296;18.960;2022-12-19T15:30:51;113062.75;;;-144.43;99.85
37486;BME280;23341;50.296;18.960;2022-12-19T15:35:57;113062.75;;;-144.43;99.56
37486;BME280;23341;50.296;18.960;2022-12-19T15:41:01;113062.75;;;-144.43;100.00
37486;BME280;23341;50.296;18.960;2022-12-19T15:46:13;113062.75;;;-144.43;100.00
37486;BME280;23341;50.296;18.960;2022-12-19T15:51:18;113062.75;;;-144.43;100.00
37486;BME280;23341;50.296;18.960;2022-12-19T15:56:24;113062.75;;;-144.43;100.00
37486;BME280;23341;50.296;18.960;2022-12-19T16:01:45;113062.75;;;-144.43;100.00
37486;BME280;23341;50.296;18.960;2022-12-19T16:07:08;113062.75;;;-144.43;100.00
37486;BME280;23341;50.296;18.960;2022-12-19T16:12:16;113062.75;;;-144.43;100.00
37486;BME280;23341;50.296;18.960;2022-12-19T16:17:31;113062.75;;;-144.43;99.63
37486;BME280;23341;50.296;18.960;2022-12-19T16:22:37;113062.75;;;-144.43;98.88
37486;BME280;23341;50.296;18.960;2022-12-19T16:27:49;113062.75;;;-144.43;98.65
37486;BME280;23341;50.296;18.960;2022-12-19T16:32:57;113062.75;;;-144.43;99.78
37486;BME280;23341;50.296;18.960;2022-12-19T16:43:21;113062.75;;;-144.43;99.45
37486;BME280;23341;50.296;18.960;2022-12-19T17:05:53;113062.75;;;-144.43;98.78
37486;BME280;23341;50.296;18.960;2022-12-19T17:10:57;113062.75;;;-144.43;99.08
37486;BME280;23341;50.296;18.960;2022-12-19T17:16:02;113062.75;;;-144.43;98.59
37486;BME280;23341;50.296;18.960;2022-12-19T17:26:28;113062.75;;;-144.43;96.40
37486;BME280;23341;50.296;18.960;2022-12-19T17:31:33;113062.75;;;-144.43;96.52
37486;BME280;23341;50.296;18.960;2022-12-19T17:36:40;113062.75;;;-144.43;95.89
37486;BME280;23341;50.296;18.960;2022-12-19T17:52:55;113062.75;;;-144.43;92.98
37486;BME280;23341;50.296;18.960;2022-12-19T17:57:59;113062.75;;;-144.43;93.75
37486;BME280;23341;50.296;18.960;2022-12-19T18:03:12;113062.75;;;-144.43;93.64
37486;BME280;23341;50.296;18.960;2022-12-19T18:13:31;113062.75;;;-144.43;93.80
37486;BME280;23341;50.296;18.960;2022-12-19T18:18:35;113062.75;;;-144.43;94.37
37486;BME280;23341;50.296;18.960;2022-12-19T18:23:43;113062.75;;;-144.43;94.48
37486;BME280;23341;50.296;18.960;2022-12-19T18:28:48;113062.75;;;-144.43;93.20
37486;BME280;23341;50.296;18.960;2022-12-19T18:33:53;113062.75;;;-144.43;93.19
37486;BME280;23341;50.296;18.960;2022-12-19T18:39:18;113062.75;;;-144.43;92.67
37486;BME280;23341;50.296;18.960;2022-12-19T18:44:31;113062.75;;;-144.43;91.85
37486;BME280;23341;50.296;18.960;2022-12-19T18:54:36;113062.75;;;-144.43;91.80
37486;BME280;23341;50.296;18.960;2022-12-19T18:59:41;113062.75;;;-144.43;91.93
37486;BME280;23341;50.296;18.960;2022-12-19T19:10:34;113062.75;;;-144.43;92.35
37486;BME280;23341;50.296;18.960;2022-12-19T19:21:04;113062.75;;;-144.43;91.53
37486;BME280;23341;50.296;18.960;2022-12-19T19:26:10;113062.75;;;-144.43;90.84
37486;BME280;23341;50.296;18.960;2022-12-19T19:36:39;113062.75;;;-144.43;90.21
37486;BME280;23341;50.296;18.960;2022-12-19T19:46:54;113062.75;;;-144.43;90.15
37486;BME280;23341;50.296;18.960;2022-12-19T20:03:15;113062.75;;;-144.43;91.28
37486;BME280;23341;50.296;18.960;2022-12-19T20:08:24;113062.75;;;-144.43;91.50
37486;BME280;23341;50.296;18.960;2022-12-19T20:13:28;113062.75;;;-144.43;91.98
37486;BME280;23341;50.296;18.960;2022-12-19T20:18:34;113062.75;;;-144.43;91.81
37486;BME280;23341;50.296;18.960;2022-12-19T20:23:39;113062.75;;;-144.43;91.87
37486;BME280;23341;50.296;18.960;2022-12-19T20:28:43;113062.75;;;-144.43;91.99
37486;BME280;23341;50.296;18.960;2022-12-19T20:33:54;113062.75;;;-144.43;93.29
37486;BME280;23341;50.296;18.960;2022-12-19T20:38:58;113062.75;;;-144.43;92.71
37486;BME280;23341;50.296;18.960;2022-12-19T20:44:01;113062.75;;;-144.43;92.65
37486;BME280;23341;50.296;18.960;2022-12-19T20:49:06;113062.75;;;-144.43;92.79
37486;BME280;23341;50.296;18.960;2022-12-19T20:54:10;113062.75;;;-144.43;92.18
37486;BME280;23341;50.296;18.960;2022-12-19T20:59:14;113062.75;;;-144.43;92.79
37486;BME280;23341;50.296;18.960;2022-12-19T21:04:19;113062.75;;;-144.43;93.37
37486;BME280;23341;50.296;18.960;2022-12-19T21:09:23;113062.75;;;-144.43;92.58
37486;BME280;23341;50.296;18.960;2022-12-19T21:14:27;113062.75;;;-144.43;93.00
37486;BME280;23341;50.296;18.960;2022-12-19T21:19:32;113062.75;;;-144.43;93.47
37486;BME280;23341;50.296;18.960;2022-12-19T21:24:36;113062.75;;;-144.43;93.74
37486;BME280;23341;50.296;18.960;2022-12-19T21:29:39;113062.75;;;-144.43;93.15
37486;BME280;23341;50.296;18.960;2022-12-19T21:34:44;113062.75;;;-144.43;93.04
37486;BME280;23341;50.296;18.960;2022-12-19T21:39:48;113062.75;;;-144.43;93.56
37486;BME280;23341;50.296;18.960;2022-12-19T21:44:51;113062.75;;;-144.43;93.42
37486;BME280;23341;50.296;18.960;2022-12-19T21:49:56;113062.75;;;-144.43;93.31
37486;BME280;23341;50.296;18.960;2022-12-19T21:54:59;113062.75;;;-144.43;93.61
37486;BME280;23341;50.296;18.960;2022-12-19T22:00:04;113062.75;;;-144.43;93.50
37486;BME280;23341;50.296;18.960;2022-12-19T22:05:09;113062.75;;;-144.43;93.04
37486;BME280;23341;50.296;18.960;2022-12-19T22:10:13;113062.75;;;-144.43;92.76
37486;BME280;23341;50.296;18.960;2022-12-19T22:15:16;113062.75;;;-144.43;93.00
37486;BME280;23341;50.296;18.960;2022-12-19T22:20:21;113062.75;;;-144.43;92.63
37486;BME280;23341;50.296;18.960;2022-12-19T22:25:25;113062.75;;;-144.43;93.45
37486;BME280;23341;50.296;18.960;2022-12-19T22:30:31;113062.75;;;-144.43;93.08
37486;BME280;23341;50.296;18.960;2022-12-19T22:35:36;113062.75;;;-144.43;93.38
37486;BME280;23341;50.296;18.960;2022-12-19T22:40:41;113062.75;;;-144.43;92.94
37486;BME280;23341;50.296;18.960;2022-12-19T22:45:45;113062.75;;;-144.43;93.19
37486;BME280;23341;50.296;18.960;2022-12-19T22:50:50;113062.75;;;-144.43;93.84
37486;BME280;23341;50.296;18.960;2022-12-19T22:55:53;113062.75;;;-144.43;93.41
37486;BME280;23341;50.296;18.960;2022-12-19T23:00:57;113062.75;;;-144.43;93.18
37486;BME280;23341;50.296;18.960;2022-12-19T23:06:02;113062.75;;;-144.43;92.81
37486;BME280;23341;50.296;18.960;2022-12-19T23:11:08;113062.75;;;-144.43;92.64
37486;BME280;23341;50.296;18.960;2022-12-19T23:16:12;113062.75;;;-144.43;93.11
37486;BME280;23341;50.296;18.960;2022-12-19T23:21:18;113062.75;;;-144.43;92.41
37486;BME280;23341;50.296;18.960;2022-12-19T23:26:24;113062.75;;;-144.43;93.13
37486;BME280;23341;50.296;18.960;2022-12-19T23:31:28;113062.75;;;-144.43;92.98
37486;BME280;23341;50.296;18.960;2022-12-19T23:36:33;113062.75;;;-144.43;93.84
37486;BME280;23341;50.296;18.960;2022-12-19T23:41:57;113062.75;;;-144.43;93.95
37486;BME280;23341;50.296;18.960;2022-12-19T23:47:01;113062.75;;;-144.43;92.98
37486;BME280;23341;50.296;18.960;2022-12-19T23:52:06;113062.75;;;-144.43;92.94
37486;BME280;23341;50.296;18.960;2022-12-19T23:57:10;113062.75;;;-144.43;92.74
